createdAt,value
2018-01-20T00:01:42.268Z,0.00
2018-01-20T00:02:42.192Z,0.00
2018-01-20T00:04:34.191Z,0.00
2018-01-20T00:05:34.115Z,0.00
2018-01-20T00:07:26.151Z,0.00
2018-01-20T00:08:26.056Z,0.00
2018-01-20T00:10:18.047Z,0.00
2018-01-20T00:11:17.963Z,0.00
2018-01-20T00:13:09.942Z,0.00
2018-01-20T00:14:09.867Z,0.00
2018-01-20T00:16:01.899Z,0.00
2018-01-20T00:17:01.898Z,0.00
2018-01-20T00:18:53.800Z,0.00
2018-01-20T00:19:53.733Z,0.00
2018-01-20T00:21:45.727Z,0.00
2018-01-20T00:22:45.639Z,0.00
2018-01-20T00:24:37.641Z,0.00
2018-01-20T00:25:37.553Z,0.00
2018-01-20T00:27:29.548Z,0.00
2018-01-20T00:28:29.488Z,0.00
2018-01-20T00:30:21.470Z,0.00
2018-01-20T00:31:21.372Z,0.00
2018-01-20T00:33:13.366Z,0.00
2018-01-20T00:34:13.325Z,0.00
2018-01-20T00:36:05.283Z,0.00
2018-01-20T00:37:05.200Z,0.00
2018-01-20T00:38:57.191Z,0.00
2018-01-20T00:39:57.123Z,0.00
2018-01-20T00:41:49.141Z,0.00
2018-01-20T00:42:49.080Z,0.00
2018-01-20T00:44:41.048Z,0.00
2018-01-20T00:45:40.977Z,0.00
2018-01-20T00:47:32.996Z,0.00
2018-01-20T00:48:32.917Z,0.00
2018-01-20T00:50:24.892Z,0.00
2018-01-20T00:51:24.823Z,0.00
2018-01-20T00:53:16.812Z,0.00
2018-01-20T00:54:16.725Z,0.00
2018-01-20T00:56:08.718Z,0.00
2018-01-20T00:57:08.643Z,0.00
2018-01-20T00:59:00.649Z,0.00
2018-01-20T01:00:00.568Z,0.00
2018-01-20T01:01:52.567Z,0.00
2018-01-20T01:02:52.484Z,0.00
2018-01-20T01:04:44.528Z,0.00
2018-01-20T01:05:44.472Z,0.00
2018-01-20T01:07:36.484Z,0.00
2018-01-20T01:08:36.375Z,0.00
2018-01-20T01:10:28.388Z,0.00
2018-01-20T01:11:28.316Z,0.00
2018-01-20T01:13:20.340Z,0.00
2018-01-20T01:14:20.244Z,0.00
2018-01-20T01:16:12.247Z,0.00
2018-01-20T01:17:12.164Z,0.00
2018-01-20T01:19:04.204Z,0.00
2018-01-20T01:20:04.118Z,0.00
2018-01-20T01:21:56.110Z,0.00
2018-01-20T01:22:56.037Z,0.00
2018-01-20T01:24:48.043Z,0.00
2018-01-20T01:25:47.948Z,0.00
2018-01-20T01:27:39.976Z,0.00
2018-01-20T01:28:39.866Z,0.00
2018-01-20T01:30:31.882Z,0.00
2018-01-20T01:31:31.795Z,0.00
2018-01-20T01:33:23.780Z,0.00
2018-01-20T01:34:23.703Z,0.00
2018-01-20T01:36:15.727Z,0.00
2018-01-20T01:37:15.658Z,0.00
2018-01-20T01:39:07.656Z,0.00
2018-01-20T01:40:07.569Z,0.00
2018-01-20T01:41:59.572Z,0.00
2018-01-20T01:42:59.505Z,0.00
2018-01-20T01:44:51.538Z,0.00
2018-01-20T01:45:51.456Z,0.00
2018-01-20T01:47:43.440Z,0.00
2018-01-20T01:48:43.362Z,0.00
2018-01-20T01:50:35.392Z,0.00
2018-01-20T01:51:35.296Z,0.00
2018-01-20T01:53:27.278Z,0.00
2018-01-20T01:54:27.191Z,0.00
2018-01-20T01:56:19.192Z,0.00
2018-01-20T01:57:19.122Z,0.00
2018-01-20T01:59:11.205Z,0.00
2018-01-20T02:00:11.101Z,0.00
2018-01-20T02:02:03.112Z,0.00
2018-01-20T02:03:03.028Z,0.00
2018-01-20T02:04:55.016Z,0.00
2018-01-20T02:05:54.943Z,0.00
2018-01-20T02:07:46.974Z,0.00
2018-01-20T02:08:46.875Z,0.00
2018-01-20T02:10:38.890Z,0.00
2018-01-20T02:11:38.800Z,0.00
2018-01-20T02:13:30.806Z,0.00
2018-01-20T02:14:30.752Z,0.00
2018-01-20T02:16:22.760Z,0.00
2018-01-20T02:17:22.692Z,0.00
2018-01-20T02:19:14.665Z,0.00
2018-01-20T02:20:14.574Z,0.00
2018-01-20T02:22:06.562Z,0.00
2018-01-20T02:23:06.488Z,0.00
2018-01-20T02:24:58.488Z,0.00
2018-01-20T02:25:58.403Z,0.00
2018-01-20T02:27:50.404Z,0.00
2018-01-20T02:28:50.337Z,0.00
2018-01-20T02:30:42.374Z,0.00
2018-01-20T02:31:42.319Z,0.00
2018-01-20T02:33:34.262Z,0.00
2018-01-20T02:34:34.183Z,0.00
2018-01-20T02:36:26.203Z,0.00
2018-01-20T02:37:26.186Z,0.00
2018-01-20T02:39:18.114Z,0.00
2018-01-20T02:40:18.042Z,0.00
2018-01-20T02:42:10.045Z,0.00
2018-01-20T02:43:09.978Z,0.00
2018-01-20T02:45:01.949Z,0.00
2018-01-20T02:46:01.866Z,0.00
2018-01-20T02:47:53.869Z,0.00
2018-01-20T02:48:53.767Z,0.00
2018-01-20T02:50:45.755Z,0.00
2018-01-20T02:51:45.676Z,0.00
2018-01-20T02:53:37.691Z,0.00
2018-01-20T02:54:37.627Z,0.00
2018-01-20T02:56:29.636Z,0.00
2018-01-20T02:57:29.556Z,0.00
2018-01-20T02:59:21.556Z,0.00
2018-01-20T03:00:21.487Z,0.00
2018-01-20T03:02:13.521Z,0.00
2018-01-20T03:03:13.452Z,0.00
2018-01-20T03:05:05.420Z,0.00
2018-01-20T03:06:05.350Z,0.00
2018-01-20T03:07:57.354Z,0.00
2018-01-20T03:08:57.336Z,0.00
2018-01-20T03:10:49.726Z,0.00
2018-01-20T03:11:49.208Z,0.00
2018-01-20T03:13:41.205Z,0.00
2018-01-20T03:14:41.139Z,0.00
2018-01-20T03:16:33.142Z,0.00
2018-01-20T03:17:33.074Z,0.00
2018-01-20T03:19:25.063Z,0.00
2018-01-20T03:20:25.034Z,0.00
2018-01-20T03:22:16.972Z,0.00
2018-01-20T03:23:16.896Z,0.00
2018-01-20T03:25:08.881Z,0.00
2018-01-20T03:26:08.818Z,0.00
2018-01-20T03:28:00.863Z,0.00
2018-01-20T03:29:00.774Z,0.00
2018-01-20T03:30:52.810Z,0.00
2018-01-20T03:31:52.738Z,0.00
2018-01-20T03:33:44.728Z,0.00
2018-01-20T03:34:44.645Z,0.00
2018-01-20T03:36:36.652Z,0.00
2018-01-20T03:37:36.877Z,0.00
2018-01-20T03:39:28.574Z,0.00
2018-01-20T03:40:28.497Z,0.00
2018-01-20T03:42:20.479Z,0.00
2018-01-20T03:43:20.396Z,0.00
2018-01-20T03:45:12.409Z,0.00
2018-01-20T03:46:12.314Z,0.00
2018-01-20T03:48:04.318Z,0.00
2018-01-20T03:49:04.232Z,0.00
2018-01-20T03:50:56.237Z,0.00
2018-01-20T03:51:56.156Z,0.00
2018-01-20T03:53:48.149Z,0.00
2018-01-20T03:54:48.060Z,0.00
2018-01-20T03:56:40.054Z,0.00
2018-01-20T03:57:40.008Z,0.00
2018-01-20T03:59:32.008Z,0.00
2018-01-20T04:00:31.918Z,0.00
2018-01-20T04:02:23.927Z,0.00
2018-01-20T04:03:23.834Z,0.00
2018-01-20T04:05:15.845Z,0.00
2018-01-20T04:06:15.763Z,0.00
2018-01-20T04:08:07.852Z,0.00
2018-01-20T04:09:07.761Z,0.00
2018-01-20T04:10:59.751Z,0.00
2018-01-20T04:11:59.672Z,0.00
2018-01-20T04:13:51.692Z,0.00
2018-01-20T04:14:51.606Z,0.00
2018-01-20T04:16:43.988Z,0.00
2018-01-20T04:17:43.511Z,0.00
2018-01-20T04:19:35.505Z,0.00
2018-01-20T04:20:35.426Z,0.00
2018-01-20T04:22:27.407Z,0.00
2018-01-20T04:23:27.338Z,0.00
2018-01-20T04:25:19.348Z,0.00
2018-01-20T04:26:19.271Z,0.00
2018-01-20T04:28:11.363Z,0.00
2018-01-20T04:29:11.306Z,0.00
2018-01-20T04:31:03.286Z,0.00
2018-01-20T04:32:03.192Z,0.00
2018-01-20T04:33:55.226Z,0.00
2018-01-20T04:34:55.142Z,0.00
2018-01-20T04:36:47.123Z,0.00
2018-01-20T04:37:47.054Z,0.00
2018-01-20T04:39:39.061Z,0.00
2018-01-20T04:40:38.992Z,0.00
2018-01-20T04:42:31.060Z,0.00
2018-01-20T04:43:30.895Z,0.00
2018-01-20T04:45:22.900Z,0.00
2018-01-20T04:46:22.827Z,0.00
2018-01-20T04:48:14.830Z,0.00
2018-01-20T04:49:14.761Z,0.00
2018-01-20T04:51:06.774Z,0.00
2018-01-20T04:52:06.690Z,0.00
2018-01-20T04:53:58.690Z,0.00
2018-01-20T04:54:58.621Z,0.00
2018-01-20T04:56:50.618Z,0.00
2018-01-20T04:57:50.536Z,0.00
2018-01-20T04:59:42.520Z,0.00
2018-01-20T05:00:42.442Z,0.00
2018-01-20T05:02:34.428Z,0.00
2018-01-20T05:03:34.366Z,0.00
2018-01-20T05:05:26.364Z,0.00
2018-01-20T05:06:26.383Z,0.00
2018-01-20T05:08:18.282Z,0.00
2018-01-20T05:09:18.199Z,0.00
2018-01-20T05:11:10.203Z,0.00
2018-01-20T05:12:10.161Z,0.00
2018-01-20T05:14:02.117Z,0.00
2018-01-20T05:15:02.047Z,0.00
2018-01-20T05:16:54.065Z,0.00
2018-01-20T05:17:53.978Z,0.00
2018-01-20T05:19:46.048Z,0.00
2018-01-20T05:20:45.915Z,0.00
2018-01-20T05:22:37.949Z,0.00
2018-01-20T05:23:37.846Z,0.00
2018-01-20T05:25:29.840Z,0.00
2018-01-20T05:26:29.764Z,0.00
2018-01-20T05:28:21.776Z,0.00
2018-01-20T05:29:21.695Z,0.00
2018-01-20T05:31:13.693Z,0.00
2018-01-20T05:32:13.618Z,0.00
2018-01-20T05:34:05.638Z,0.00
2018-01-20T05:35:05.550Z,0.00
2018-01-20T05:36:57.552Z,0.00
2018-01-20T05:37:57.462Z,0.00
2018-01-20T05:39:49.454Z,0.00
2018-01-20T05:40:49.397Z,0.00
2018-01-20T05:42:41.397Z,0.00
2018-01-20T05:43:41.330Z,0.00
2018-01-20T05:45:33.310Z,0.00
2018-01-20T05:46:33.240Z,0.00
2018-01-20T05:48:25.268Z,0.00
2018-01-20T05:49:25.186Z,0.00
2018-01-20T05:51:17.182Z,0.00
2018-01-20T05:52:17.095Z,0.00
2018-01-20T05:54:09.092Z,0.00
2018-01-20T05:55:09.022Z,0.00
2018-01-20T05:57:01.082Z,0.00
2018-01-20T05:58:00.968Z,0.00
2018-01-20T05:59:52.972Z,0.00
2018-01-20T06:00:52.895Z,0.00
2018-01-20T06:02:44.925Z,0.00
2018-01-20T06:03:44.858Z,0.00
2018-01-20T06:05:36.868Z,0.00
2018-01-20T06:06:36.780Z,0.00
2018-01-20T06:08:28.815Z,0.00
2018-01-20T06:09:28.719Z,0.00
2018-01-20T06:11:20.717Z,0.00
2018-01-20T06:12:20.647Z,0.00
2018-01-20T06:14:12.650Z,0.00
2018-01-20T06:15:12.579Z,0.00
2018-01-20T06:17:04.568Z,0.00
2018-01-20T06:18:04.484Z,0.00
2018-01-20T06:19:56.466Z,0.00
2018-01-20T06:20:56.399Z,0.00
2018-01-20T06:22:48.415Z,0.00
2018-01-20T06:23:48.316Z,0.00
2018-01-20T06:25:40.317Z,0.00
2018-01-20T06:26:40.251Z,0.00
2018-01-20T06:28:32.256Z,0.00
2018-01-20T06:29:32.162Z,0.00
2018-01-20T06:31:24.149Z,0.00
2018-01-20T06:32:24.083Z,0.00
2018-01-20T06:34:16.088Z,0.00
2018-01-20T06:35:16.012Z,0.00
2018-01-20T06:37:08.012Z,0.00
2018-01-20T06:38:07.933Z,0.00
2018-01-20T06:39:59.945Z,0.00
2018-01-20T06:40:59.863Z,0.00
2018-01-20T06:42:51.966Z,0.00
2018-01-20T06:43:51.790Z,0.00
2018-01-20T06:45:43.838Z,0.00
2018-01-20T06:46:43.762Z,0.00
2018-01-20T06:48:35.791Z,0.00
2018-01-20T06:49:35.698Z,0.00
2018-01-20T06:51:27.706Z,0.00
2018-01-20T06:52:27.663Z,0.00
2018-01-20T06:54:19.653Z,0.00
2018-01-20T06:55:19.568Z,0.00
2018-01-20T06:57:11.593Z,0.00
2018-01-20T06:58:11.501Z,0.00
2018-01-20T07:00:03.518Z,0.00
2018-01-20T07:01:03.582Z,0.00
2018-01-20T07:02:55.407Z,5.63
2018-01-20T07:03:55.360Z,5.63
2018-01-20T07:05:47.344Z,5.63
2018-01-20T07:06:47.255Z,5.63
2018-01-20T07:08:39.238Z,5.63
2018-01-20T07:09:39.186Z,5.63
2018-01-20T07:11:31.383Z,5.63
2018-01-20T07:12:31.202Z,5.63
2018-01-20T07:14:23.166Z,11.25
2018-01-20T07:15:23.199Z,11.25
2018-01-20T07:17:15.093Z,11.25
2018-01-20T07:18:15.010Z,11.25
2018-01-20T07:20:07.079Z,11.25
2018-01-20T07:21:06.944Z,11.25
2018-01-20T07:22:58.979Z,11.25
2018-01-20T07:23:58.910Z,11.25
2018-01-20T07:25:50.924Z,11.25
2018-01-20T07:26:50.831Z,11.25
2018-01-20T07:28:42.852Z,11.25
2018-01-20T07:29:42.786Z,16.88
2018-01-20T07:31:34.807Z,16.88
2018-01-20T07:32:34.710Z,16.88
2018-01-20T07:34:26.701Z,28.13
2018-01-20T07:35:26.624Z,33.75
2018-01-20T07:37:18.664Z,39.38
2018-01-20T07:38:18.546Z,39.38
2018-01-20T07:40:10.581Z,39.38
2018-01-20T07:41:10.525Z,39.38
2018-01-20T07:43:02.484Z,28.13
2018-01-20T07:44:02.394Z,28.13
2018-01-20T07:45:54.387Z,33.75
2018-01-20T07:46:54.338Z,28.13
2018-01-20T07:48:46.348Z,33.75
2018-01-20T07:49:46.241Z,39.38
2018-01-20T07:51:38.265Z,39.38
2018-01-20T07:52:38.181Z,39.38
2018-01-20T07:54:30.182Z,33.75
2018-01-20T07:55:30.107Z,33.75
2018-01-20T07:57:22.121Z,33.75
2018-01-20T07:58:22.036Z,39.38
2018-01-20T08:00:14.522Z,39.38
2018-01-20T08:01:13.976Z,45.00
2018-01-20T08:03:06.037Z,50.63
2018-01-20T08:04:05.947Z,50.63
2018-01-20T08:05:57.940Z,61.88
2018-01-20T08:06:57.881Z,67.50
2018-01-20T08:08:49.872Z,73.13
2018-01-20T08:09:49.781Z,67.50
2018-01-20T08:11:41.804Z,67.50
2018-01-20T08:12:41.723Z,73.13
2018-01-20T08:14:33.732Z,78.75
2018-01-20T08:15:33.647Z,84.38
2018-01-20T08:17:25.715Z,101.25
2018-01-20T08:18:25.591Z,101.25
2018-01-20T08:20:17.647Z,106.88
2018-01-20T08:21:17.558Z,106.88
2018-01-20T08:23:09.561Z,106.88
2018-01-20T08:24:09.466Z,106.88
2018-01-20T08:26:01.466Z,101.25
2018-01-20T08:27:01.395Z,95.63
2018-01-20T08:28:53.425Z,101.25
2018-01-20T08:29:53.345Z,101.25
2018-01-20T08:31:45.332Z,112.50
2018-01-20T08:32:45.276Z,118.13
2018-01-20T08:34:37.298Z,123.75
2018-01-20T08:35:37.194Z,135.00
2018-01-20T08:37:29.191Z,151.88
2018-01-20T08:38:29.112Z,151.88
2018-01-20T08:40:21.143Z,151.88
2018-01-20T08:41:21.042Z,151.88
2018-01-20T08:43:13.084Z,151.88
2018-01-20T08:44:13.045Z,151.88
2018-01-20T08:46:05.069Z,151.88
2018-01-20T08:47:04.975Z,151.88
2018-01-20T08:48:56.964Z,163.13
2018-01-20T08:49:56.889Z,174.38
2018-01-20T08:51:48.934Z,213.75
2018-01-20T08:52:48.795Z,230.63
2018-01-20T08:54:40.799Z,258.75
2018-01-20T08:55:40.720Z,264.38
2018-01-20T08:57:32.724Z,292.50
2018-01-20T08:58:32.642Z,315.00
2018-01-20T09:00:24.661Z,360.00
2018-01-20T09:01:24.571Z,382.50
2018-01-20T09:03:16.842Z,416.25
2018-01-20T09:04:16.623Z,427.50
2018-01-20T09:06:08.654Z,427.50
2018-01-20T09:07:08.622Z,421.88
2018-01-20T09:09:00.580Z,393.75
2018-01-20T09:10:00.489Z,405.00
2018-01-20T09:11:52.543Z,466.88
2018-01-20T09:12:52.443Z,517.50
2018-01-20T09:14:44.453Z,596.25
2018-01-20T09:15:44.388Z,883.13
2018-01-20T09:17:36.399Z,1040.63
2018-01-20T09:18:36.304Z,928.13
2018-01-20T09:20:28.670Z,916.88
2018-01-20T09:21:28.266Z,1057.50
2018-01-20T09:23:20.325Z,1490.63
2018-01-20T09:24:20.190Z,950.63
2018-01-20T09:26:12.218Z,720.00
2018-01-20T09:27:12.145Z,652.50
2018-01-20T09:29:04.377Z,528.75
2018-01-20T09:30:04.073Z,511.88
2018-01-20T09:31:56.186Z,433.13
2018-01-20T09:32:56.095Z,393.75
2018-01-20T09:34:48.113Z,405.00
2018-01-20T09:35:48.040Z,410.63
2018-01-20T09:37:41.095Z,478.13
2018-01-20T09:38:41.022Z,500.63
2018-01-20T09:40:33.154Z,860.63
2018-01-20T09:41:32.941Z,843.75
2018-01-20T09:43:25.024Z,815.63
2018-01-20T09:44:24.923Z,720.00
2018-01-20T09:46:16.925Z,495.00
2018-01-20T09:47:16.877Z,388.13
2018-01-20T09:49:08.906Z,315.00
2018-01-20T09:50:08.853Z,270.00
2018-01-20T09:52:00.841Z,191.25
2018-01-20T09:53:00.778Z,151.88
2018-01-20T09:54:52.806Z,146.25
2018-01-20T09:55:52.717Z,174.38
2018-01-20T09:57:44.754Z,253.13
2018-01-20T09:58:44.656Z,247.50
2018-01-20T10:00:36.677Z,326.25
2018-01-20T10:01:36.627Z,264.38
2018-01-20T10:03:28.645Z,219.38
2018-01-20T10:04:28.589Z,241.88
2018-01-20T10:06:20.729Z,236.25
2018-01-20T10:07:20.676Z,241.88
2018-01-20T10:09:12.699Z,247.50
2018-01-20T10:10:12.629Z,230.63
2018-01-20T10:12:04.600Z,258.75
2018-01-20T10:13:04.528Z,309.38
2018-01-20T10:14:56.567Z,382.50
2018-01-20T10:15:56.504Z,427.50
2018-01-20T10:17:49.683Z,461.25
2018-01-20T10:18:48.486Z,489.38
2018-01-20T10:20:41.512Z,466.88
2018-01-20T10:21:41.428Z,416.25
2018-01-20T10:23:33.488Z,523.13
2018-01-20T10:24:33.426Z,1260.00
2018-01-20T10:26:25.596Z,1833.75
2018-01-20T10:27:25.557Z,3043.13
2018-01-20T10:29:17.496Z,2638.13
2018-01-20T10:30:17.409Z,3037.50
2018-01-20T10:32:09.492Z,1411.88
2018-01-20T10:33:09.608Z,2722.50
2018-01-20T10:35:02.444Z,613.13
2018-01-20T10:36:02.360Z,826.88
2018-01-20T10:37:54.405Z,945.00
2018-01-20T10:38:54.346Z,410.63
2018-01-20T10:40:46.434Z,320.63
2018-01-20T10:41:46.344Z,270.00
2018-01-20T10:43:38.369Z,281.25
2018-01-20T10:44:38.301Z,315.00
2018-01-20T10:46:30.324Z,253.13
2018-01-20T10:47:30.291Z,331.88
2018-01-20T10:49:22.449Z,315.00
2018-01-20T10:50:22.369Z,230.63
2018-01-20T10:52:14.363Z,225.00
2018-01-20T10:53:14.293Z,270.00
2018-01-20T10:55:06.297Z,236.25
2018-01-20T10:56:06.201Z,213.75
2018-01-20T10:57:58.226Z,225.00
2018-01-20T10:58:58.152Z,208.13
2018-01-20T11:00:50.131Z,196.88
2018-01-20T11:01:50.061Z,202.50
2018-01-20T11:03:42.126Z,180.00
2018-01-20T11:04:42.004Z,191.25
2018-01-20T11:06:34.069Z,219.38
2018-01-20T11:07:33.958Z,286.88
2018-01-20T11:09:25.962Z,388.13
2018-01-20T11:10:26.120Z,331.88
2018-01-20T11:12:17.998Z,270.00
2018-01-20T11:13:18.103Z,219.38
2018-01-20T11:15:09.892Z,219.38
2018-01-20T11:16:09.851Z,343.13
2018-01-20T11:18:02.857Z,399.38
2018-01-20T11:19:02.776Z,326.25
2018-01-20T11:20:54.789Z,348.75
2018-01-20T11:21:54.720Z,303.75
2018-01-20T11:23:46.826Z,281.25
2018-01-20T11:24:46.725Z,270.00
2018-01-20T11:26:38.724Z,421.88
2018-01-20T11:27:38.654Z,489.38
2018-01-20T11:29:31.695Z,596.25
2018-01-20T11:30:31.581Z,601.88
2018-01-20T11:32:24.640Z,556.88
2018-01-20T11:33:24.603Z,500.63
2018-01-20T11:35:16.563Z,461.25
2018-01-20T11:36:16.492Z,472.50
2018-01-20T11:38:08.664Z,348.75
2018-01-20T11:39:08.573Z,258.75
2018-01-20T11:41:00.606Z,275.63
2018-01-20T11:42:00.524Z,292.50
2018-01-20T11:43:52.587Z,275.63
2018-01-20T11:44:52.450Z,298.13
2018-01-20T11:46:44.467Z,286.88
2018-01-20T11:47:44.395Z,270.00
2018-01-20T11:49:36.482Z,236.25
2018-01-20T11:50:36.486Z,241.88
2018-01-20T11:52:29.417Z,230.63
2018-01-20T11:53:29.351Z,219.38
2018-01-20T11:55:21.408Z,202.50
2018-01-20T11:56:21.373Z,196.88
2018-01-20T11:58:13.311Z,196.88
2018-01-20T11:59:13.228Z,202.50
2018-01-20T12:01:05.317Z,225.00
2018-01-20T12:02:05.245Z,230.63
2018-01-20T12:03:58.101Z,264.38
2018-01-20T12:04:57.212Z,320.63
2018-01-20T12:06:49.288Z,388.13
2018-01-20T12:07:49.210Z,388.13
2018-01-20T12:09:41.244Z,331.88
2018-01-20T12:10:41.161Z,315.00
2018-01-20T12:12:33.173Z,331.88
2018-01-20T12:13:33.116Z,382.50
2018-01-20T12:15:25.362Z,354.38
2018-01-20T12:16:25.267Z,315.00
2018-01-20T12:18:17.622Z,292.50
2018-01-20T12:19:17.223Z,303.75
2018-01-20T12:21:09.235Z,320.63
2018-01-20T12:22:09.154Z,337.50
2018-01-20T12:24:01.176Z,354.38
2018-01-20T12:25:01.696Z,337.50
2018-01-20T12:26:53.133Z,320.63
2018-01-20T12:27:53.042Z,270.00
2018-01-20T12:29:45.188Z,298.13
2018-01-20T12:30:45.101Z,331.88
2018-01-20T12:32:37.137Z,360.00
2018-01-20T12:33:37.060Z,354.38
2018-01-20T12:35:29.070Z,360.00
2018-01-20T12:36:28.979Z,343.13
2018-01-20T12:38:21.057Z,264.38
2018-01-20T12:39:20.986Z,241.88
2018-01-20T12:41:13.008Z,213.75
2018-01-20T12:42:12.951Z,202.50
2018-01-20T12:44:05.216Z,196.88
2018-01-20T12:45:05.140Z,196.88
2018-01-20T12:46:57.194Z,230.63
2018-01-20T12:47:57.103Z,258.75
2018-01-20T12:49:49.157Z,286.88
2018-01-20T12:50:49.092Z,309.38
2018-01-20T12:52:41.118Z,315.00
2018-01-20T12:53:41.022Z,331.88
2018-01-20T12:55:33.098Z,315.00
2018-01-20T12:56:32.955Z,320.63
2018-01-20T12:58:25.010Z,326.25
2018-01-20T12:59:24.908Z,320.63
2018-01-20T13:01:18.142Z,315.00
2018-01-20T13:02:18.093Z,270.00
2018-01-20T13:04:09.932Z,185.63
2018-01-20T13:05:09.865Z,180.00
2018-01-20T13:07:01.891Z,196.88
2018-01-20T13:08:01.816Z,196.88
2018-01-20T13:09:53.805Z,208.13
2018-01-20T13:10:53.760Z,208.13
2018-01-20T13:12:45.773Z,208.13
2018-01-20T13:13:45.683Z,219.38
2018-01-20T13:15:37.689Z,208.13
2018-01-20T13:16:37.607Z,196.88
2018-01-20T13:18:30.642Z,168.75
2018-01-20T13:19:30.605Z,191.25
2018-01-20T13:21:22.705Z,146.25
2018-01-20T13:22:22.516Z,135.00
2018-01-20T13:24:14.568Z,112.50
2018-01-20T13:25:14.497Z,106.88
2018-01-20T13:27:06.498Z,95.63
2018-01-20T13:28:06.408Z,90.00
2018-01-20T13:29:58.400Z,95.63
2018-01-20T13:30:58.334Z,118.13
2018-01-20T13:32:50.357Z,129.38
2018-01-20T13:33:50.282Z,129.38
2018-01-20T13:35:42.283Z,123.75
2018-01-20T13:36:42.216Z,129.38
2018-01-20T13:38:34.285Z,140.63
2018-01-20T13:39:34.191Z,146.25
2018-01-20T13:41:26.199Z,146.25
2018-01-20T13:42:26.118Z,146.25
2018-01-20T13:44:18.145Z,146.25
2018-01-20T13:45:18.088Z,151.88
2018-01-20T13:47:10.112Z,146.25
2018-01-20T13:48:09.998Z,140.63
2018-01-20T13:50:02.014Z,140.63
2018-01-20T13:51:01.918Z,135.00
2018-01-20T13:52:53.919Z,140.63
2018-01-20T13:53:53.856Z,140.63
2018-01-20T13:55:45.905Z,140.63
2018-01-20T13:56:45.768Z,135.00
2018-01-20T13:58:37.798Z,135.00
2018-01-20T13:59:37.713Z,135.00
2018-01-20T14:01:29.879Z,135.00
2018-01-20T14:02:29.866Z,129.38
2018-01-20T14:04:21.843Z,118.13
2018-01-20T14:05:21.798Z,112.50
2018-01-20T14:07:13.764Z,95.63
2018-01-20T14:08:13.696Z,84.38
2018-01-20T14:10:05.732Z,73.13
2018-01-20T14:11:05.654Z,73.13
2018-01-20T14:12:57.645Z,84.38
2018-01-20T14:13:57.570Z,112.50
2018-01-20T14:15:49.568Z,146.25
2018-01-20T14:16:49.563Z,151.88
2018-01-20T14:18:41.559Z,163.13
2018-01-20T14:19:41.477Z,135.00
2018-01-20T14:21:33.486Z,84.38
2018-01-20T14:22:33.393Z,84.38
2018-01-20T14:24:25.398Z,78.75
2018-01-20T14:25:25.331Z,78.75
2018-01-20T14:27:17.483Z,78.75
2018-01-20T14:28:17.258Z,78.75
2018-01-20T14:30:09.303Z,73.13
2018-01-20T14:31:09.172Z,67.50
2018-01-20T14:33:01.169Z,61.88
2018-01-20T14:34:01.102Z,61.88
2018-01-20T14:35:53.109Z,50.63
2018-01-20T14:36:53.022Z,45.00
2018-01-20T14:38:45.084Z,39.38
2018-01-20T14:39:45.010Z,39.38
2018-01-20T14:41:37.046Z,45.00
2018-01-20T14:42:36.957Z,50.63
2018-01-20T14:44:29.053Z,56.25
2018-01-20T14:45:29.032Z,56.25
2018-01-20T14:47:21.029Z,67.50
2018-01-20T14:48:20.921Z,67.50
2018-01-20T14:50:12.900Z,61.88
2018-01-20T14:51:12.807Z,56.25
2018-01-20T14:53:04.865Z,50.63
2018-01-20T14:54:04.790Z,50.63
2018-01-20T14:55:56.771Z,50.63
2018-01-20T14:56:56.693Z,50.63
2018-01-20T14:58:48.720Z,50.63
2018-01-20T14:59:48.645Z,39.38
2018-01-20T15:01:40.679Z,33.75
2018-01-20T15:02:40.589Z,33.75
2018-01-20T15:04:32.589Z,28.13
2018-01-20T15:05:32.509Z,22.50
2018-01-20T15:07:24.533Z,16.88
2018-01-20T15:08:24.452Z,16.88
2018-01-20T15:10:16.459Z,11.25
2018-01-20T15:11:16.386Z,11.25
2018-01-20T15:13:08.385Z,11.25
2018-01-20T15:14:08.305Z,11.25
2018-01-20T15:16:00.317Z,11.25
2018-01-20T15:17:00.248Z,5.63
2018-01-20T15:18:52.262Z,5.63
2018-01-20T15:19:52.194Z,5.63
2018-01-20T15:21:44.228Z,5.63
2018-01-20T15:22:44.144Z,5.63
2018-01-20T15:24:36.164Z,5.63
2018-01-20T15:25:36.067Z,5.63
2018-01-20T15:27:28.297Z,0.00
2018-01-20T15:28:27.999Z,0.00
2018-01-20T15:30:19.979Z,0.00
2018-01-20T15:31:19.911Z,0.00
2018-01-20T15:33:11.947Z,0.00
2018-01-20T15:34:11.864Z,0.00
2018-01-20T15:36:03.905Z,0.00
2018-01-20T15:37:03.777Z,0.00
2018-01-20T15:38:55.791Z,0.00
2018-01-20T15:39:55.945Z,0.00
2018-01-20T15:41:47.711Z,0.00
2018-01-20T15:42:47.621Z,0.00
2018-01-20T15:44:39.742Z,0.00
2018-01-20T15:45:39.559Z,0.00
2018-01-20T15:47:31.563Z,0.00
2018-01-20T15:48:31.544Z,0.00
2018-01-20T15:50:23.502Z,0.00
2018-01-20T15:51:23.431Z,0.00
2018-01-20T15:53:15.448Z,0.00
2018-01-20T15:54:15.360Z,0.00
2018-01-20T15:56:07.350Z,0.00
2018-01-20T15:57:07.286Z,0.00
2018-01-20T15:58:59.335Z,0.00
2018-01-20T15:59:59.215Z,0.00
2018-01-20T16:01:51.579Z,0.00
2018-01-20T16:02:51.134Z,0.00
2018-01-20T16:04:43.130Z,0.00
2018-01-20T16:05:43.058Z,0.00
2018-01-20T16:07:35.091Z,0.00
2018-01-20T16:08:34.984Z,0.00
2018-01-20T16:10:26.990Z,0.00
2018-01-20T16:11:26.969Z,0.00
2018-01-20T16:13:18.994Z,0.00
2018-01-20T16:14:18.891Z,0.00
2018-01-20T16:16:11.328Z,0.00
2018-01-20T16:17:10.844Z,0.00
2018-01-20T16:19:02.859Z,0.00
2018-01-20T16:20:02.726Z,0.00
2018-01-20T16:21:54.779Z,0.00
2018-01-20T16:22:54.714Z,0.00
2018-01-20T16:24:47.111Z,0.00
2018-01-20T16:25:46.592Z,0.00
2018-01-20T16:27:38.577Z,0.00
2018-01-20T16:28:38.513Z,0.00
2018-01-20T16:30:30.578Z,0.00
2018-01-20T16:31:30.497Z,0.00
2018-01-20T16:33:22.499Z,0.00
2018-01-20T16:34:22.432Z,0.00
2018-01-20T16:36:14.421Z,0.00
2018-01-20T16:37:14.335Z,0.00
2018-01-20T16:39:06.379Z,0.00
2018-01-20T16:40:06.305Z,0.00
2018-01-20T16:41:58.511Z,0.00
2018-01-20T16:42:58.445Z,0.00
2018-01-20T16:44:50.517Z,0.00
2018-01-20T16:45:50.392Z,0.00
2018-01-20T16:47:42.392Z,0.00
2018-01-20T16:48:42.301Z,0.00
2018-01-20T16:50:34.327Z,0.00
2018-01-20T16:51:34.252Z,0.00
2018-01-20T16:53:26.323Z,0.00
2018-01-20T16:54:26.222Z,0.00
2018-01-20T16:56:18.220Z,0.00
2018-01-20T16:57:18.166Z,0.00
2018-01-20T16:59:10.189Z,0.00
2018-01-20T17:00:10.118Z,0.00
2018-01-20T17:02:02.104Z,0.00
2018-01-20T17:03:02.028Z,0.00
2018-01-20T17:04:54.034Z,0.00
2018-01-20T17:05:54.042Z,0.00
2018-01-20T17:07:45.970Z,0.00
2018-01-20T17:08:45.869Z,0.00
2018-01-20T17:10:37.888Z,0.00
2018-01-20T17:11:37.851Z,0.00
2018-01-20T17:13:29.786Z,0.00
2018-01-20T17:14:29.716Z,0.00
2018-01-20T17:16:21.718Z,0.00
2018-01-20T17:17:21.643Z,0.00
2018-01-20T17:19:13.676Z,0.00
2018-01-20T17:20:13.633Z,0.00
2018-01-20T17:22:05.592Z,0.00
2018-01-20T17:23:05.507Z,0.00
2018-01-20T17:24:57.484Z,0.00
2018-01-20T17:25:57.445Z,0.00
2018-01-20T17:27:49.465Z,0.00
2018-01-20T17:28:49.380Z,0.00
2018-01-20T17:30:41.332Z,0.00
2018-01-20T17:31:41.263Z,0.00
2018-01-20T17:33:33.307Z,0.00
2018-01-20T17:34:33.230Z,0.00
2018-01-20T17:36:25.314Z,0.00
2018-01-20T17:37:25.156Z,0.00
2018-01-20T17:39:17.119Z,0.00
2018-01-20T17:40:17.099Z,0.00
2018-01-20T17:42:09.082Z,0.00
2018-01-20T17:43:09.000Z,0.00
2018-01-20T17:45:00.997Z,0.00
2018-01-20T17:46:00.934Z,0.00
2018-01-20T17:47:52.926Z,0.00
2018-01-20T17:48:52.842Z,0.00
2018-01-20T17:50:44.814Z,0.00
2018-01-20T17:51:44.750Z,0.00
2018-01-20T17:53:36.746Z,0.00
2018-01-20T17:54:36.666Z,0.00
2018-01-20T17:56:28.690Z,0.00
2018-01-20T17:57:28.569Z,0.00
2018-01-20T17:59:20.578Z,0.00
2018-01-20T18:00:20.491Z,0.00
2018-01-20T18:02:12.470Z,0.00
2018-01-20T18:03:12.405Z,0.00
2018-01-20T18:05:04.405Z,0.00
2018-01-20T18:06:04.326Z,0.00
2018-01-20T18:07:56.359Z,0.00
2018-01-20T18:08:56.281Z,0.00
2018-01-20T18:10:48.253Z,0.00
2018-01-20T18:11:48.185Z,0.00
2018-01-20T18:13:40.242Z,0.00
2018-01-20T18:14:40.102Z,0.00
2018-01-20T18:16:32.128Z,0.00
2018-01-20T18:17:32.138Z,0.00
2018-01-20T18:19:24.053Z,0.00
2018-01-20T18:20:23.974Z,0.00
2018-01-20T18:22:16.016Z,0.00
2018-01-20T18:23:15.987Z,0.00
2018-01-20T18:25:07.931Z,0.00
2018-01-20T18:26:07.915Z,0.00
2018-01-20T18:27:59.971Z,0.00
2018-01-20T18:28:59.801Z,0.00
2018-01-20T18:30:51.940Z,0.00
2018-01-20T18:31:51.870Z,0.00
2018-01-20T18:33:43.924Z,0.00
2018-01-20T18:34:43.851Z,0.00
2018-01-20T18:36:35.847Z,0.00